DAL480 KLAX-PHNL
Flight info
| Callsign | DAL480 |
|---|---|
| Flight time | 5h 10m |
| Altitude | 40000 |
| Route | SUMMR2 DINTY DUETS R576 DENNS MAGGI3 |
| Aircraft | A359/H-SDE2E3GHIJ3J4J5LM1ORWXY/LB1D1 |
Departure
| Time | 2026-05-06 22:03 |
|---|---|
| Airport | Los Angeles International Airport (KLAX) |
Arrival
| Time | 2026-05-07 03:14 |
|---|---|
| Airport | Daniel K. Inouye International Airport (PHNL) |
| Time | Latitude | Longitude | Altitude | Speed | Heading |
|---|---|---|---|---|---|
| 2026-05-06 21:40 | 33.93958 | -118.40909 | 132 ft | 0 kts | 291° |
| 2026-05-06 21:53 | 33.93957 | -118.40905 | 132 ft | 3 kts | 291° |
| 2026-05-06 21:54 | 33.93946 | -118.40874 | 129 ft | 4 kts | 292° |
| 2026-05-06 21:54 | 33.93941 | -118.40859 | 131 ft | 4 kts | 285° |
| 2026-05-06 21:54 | 33.93939 | -118.40832 | 126 ft | 4 kts | 229° |
| 2026-05-06 21:54 | 33.93959 | -118.40818 | 128 ft | 4 kts | 196° |
| 2026-05-06 21:55 | 33.93986 | -118.40813 | 132 ft | 4 kts | 174° |
| 2026-05-06 21:55 | 33.94012 | -118.40819 | 132 ft | 4 kts | 165° |
| 2026-05-06 21:55 | 33.94029 | -118.40824 | 132 ft | 0 kts | 173° |
| 2026-05-06 21:55 | 33.94029 | -118.40823 | 132 ft | 0 kts | 173° |
| 2026-05-06 21:58 | 33.94002 | -118.40819 | 132 ft | 13 kts | 172° |
| 2026-05-06 21:58 | 33.93898 | -118.40787 | 127 ft | 16 kts | 151° |
| 2026-05-06 21:58 | 33.93822 | -118.40691 | 122 ft | 16 kts | 113° |
| 2026-05-06 21:59 | 33.93823 | -118.40560 | 123 ft | 17 kts | 82° |
| 2026-05-06 21:59 | 33.93839 | -118.40376 | 129 ft | 24 kts | 83° |
| 2026-05-06 21:59 | 33.93862 | -118.40174 | 126 ft | 25 kts | 82° |
| 2026-05-06 21:59 | 33.93883 | -118.39974 | 124 ft | 24 kts | 86° |
| 2026-05-06 22:00 | 33.93902 | -118.39774 | 128 ft | 25 kts | 83° |
| 2026-05-06 22:00 | 33.93923 | -118.39563 | 132 ft | 26 kts | 84° |
| 2026-05-06 22:00 | 33.93942 | -118.39338 | 124 ft | 28 kts | 84° |
| 2026-05-06 22:00 | 33.93969 | -118.39105 | 124 ft | 29 kts | 82° |
| 2026-05-06 22:01 | 33.93995 | -118.38863 | 132 ft | 29 kts | 83° |
| 2026-05-06 22:01 | 33.94019 | -118.38614 | 130 ft | 31 kts | 83° |
| 2026-05-06 22:01 | 33.94045 | -118.38357 | 129 ft | 31 kts | 82° |
| 2026-05-06 22:01 | 33.94072 | -118.38106 | 127 ft | 20 kts | 85° |
| 2026-05-06 22:02 | 33.94071 | -118.38074 | 132 ft | 8 kts | 92° |
| 2026-05-06 22:02 | 33.94003 | -118.38014 | 130 ft | 17 kts | 197° |
| 2026-05-06 22:02 | 33.93984 | -118.38038 | 124 ft | 2 kts | 261° |
| 2026-05-06 22:02 | 33.93979 | -118.38070 | 124 ft | 0 kts | 262° |
| 2026-05-06 22:03 | 33.93972 | -118.38148 | 127 ft | 45 kts | 263° |
| 2026-05-06 22:03 | 33.93890 | -118.38951 | 128 ft | 145 kts | 263° |
| 2026-05-06 22:03 | 33.93705 | -118.40398 | 632 ft | 186 kts | 255° |
| 2026-05-06 22:03 | 33.93407 | -118.42027 | 1510 ft | 214 kts | 253° |
| 2026-05-06 22:04 | 33.93051 | -118.43789 | 2278 ft | 215 kts | 252° |
| 2026-05-06 22:04 | 33.92757 | -118.45591 | 2861 ft | 230 kts | 261° |
| 2026-05-06 22:04 | 33.92637 | -118.47603 | 3223 ft | 250 kts | 260° |
| 2026-05-06 22:04 | 33.92461 | -118.49722 | 3659 ft | 264 kts | 263° |
| 2026-05-06 22:05 | 33.92313 | -118.51943 | 4362 ft | 265 kts | 265° |
| 2026-05-06 22:05 | 33.92164 | -118.54128 | 5396 ft | 258 kts | 267° |
| 2026-05-06 22:05 | 33.92021 | -118.56282 | 6225 ft | 264 kts | 261° |
| 2026-05-06 22:05 | 33.91809 | -118.58529 | 6711 ft | 277 kts | 262° |
| 2026-05-06 22:06 | 33.91618 | -118.60877 | 6976 ft | 283 kts | 266° |
| 2026-05-06 22:06 | 33.91525 | -118.63263 | 7377 ft | 286 kts | 271° |
| 2026-05-06 22:06 | 33.91577 | -118.65663 | 8282 ft | 288 kts | 274° |
| 2026-05-06 22:06 | 33.91632 | -118.68097 | 9221 ft | 292 kts | 274° |
| 2026-05-06 22:07 | 33.91667 | -118.70578 | 10074 ft | 299 kts | 273° |
| 2026-05-06 22:07 | 33.91679 | -118.73152 | 10562 ft | 318 kts | 272° |
| 2026-05-06 22:07 | 33.91681 | -118.75911 | 10965 ft | 339 kts | 273° |
| 2026-05-06 22:07 | 33.91685 | -118.78802 | 11522 ft | 352 kts | 273° |
| 2026-05-06 22:08 | 33.91677 | -118.81789 | 11898 ft | 359 kts | 271° |
| 2026-05-06 22:08 | 33.91648 | -118.84805 | 12040 ft | 361 kts | 272° |
| 2026-05-06 22:08 | 33.91719 | -118.87804 | 12509 ft | 365 kts | 274° |
| 2026-05-06 22:08 | 33.91801 | -118.90860 | 13374 ft | 367 kts | 273° |
| 2026-05-06 22:09 | 33.91880 | -118.93944 | 14155 ft | 370 kts | 274° |
| 2026-05-06 22:09 | 33.91987 | -118.97055 | 14870 ft | 374 kts | 276° |
| 2026-05-06 22:09 | 33.92201 | -119.00187 | 15595 ft | 375 kts | 283° |
| 2026-05-06 22:09 | 33.92994 | -119.03148 | 16303 ft | 372 kts | 300° |
| 2026-05-06 22:10 | 33.94284 | -119.05847 | 17046 ft | 372 kts | 306° |
| 2026-05-06 22:10 | 33.95669 | -119.08500 | 17795 ft | 376 kts | 306° |
| 2026-05-06 22:10 | 33.97074 | -119.11181 | 18494 ft | 380 kts | 306° |
| 2026-05-06 22:10 | 33.98471 | -119.13862 | 19118 ft | 384 kts | 306° |
| 2026-05-06 22:11 | 33.99943 | -119.16615 | 19762 ft | 386 kts | 309° |
| 2026-05-06 22:11 | 34.01654 | -119.19041 | 20390 ft | 384 kts | 320° |
| 2026-05-06 22:11 | 34.03719 | -119.21082 | 21054 ft | 384 kts | 326° |
| 2026-05-06 22:11 | 34.05893 | -119.22984 | 21729 ft | 386 kts | 328° |
| 2026-05-06 22:12 | 34.08101 | -119.24859 | 22388 ft | 390 kts | 329° |
| 2026-05-06 22:12 | 34.10334 | -119.26771 | 23008 ft | 395 kts | 326° |
| 2026-05-06 22:12 | 34.12566 | -119.28734 | 23595 ft | 399 kts | 326° |
| 2026-05-06 22:12 | 34.14821 | -119.30711 | 24116 ft | 403 kts | 326° |
| 2026-05-06 22:13 | 34.17073 | -119.32673 | 24618 ft | 406 kts | 327° |
| 2026-05-06 22:13 | 34.19375 | -119.34670 | 25122 ft | 409 kts | 327° |
| 2026-05-06 22:13 | 34.21676 | -119.36725 | 25549 ft | 413 kts | 320° |
| 2026-05-06 22:13 | 34.23939 | -119.38911 | 25773 ft | 419 kts | 321° |
| 2026-05-06 22:14 | 34.26261 | -119.41076 | 26145 ft | 421 kts | 321° |
| 2026-05-06 22:14 | 34.28600 | -119.43216 | 26519 ft | 422 kts | 321° |
| 2026-05-06 22:14 | 34.30964 | -119.45336 | 26875 ft | 424 kts | 322° |
| 2026-05-06 22:14 | 34.33392 | -119.47348 | 27386 ft | 422 kts | 330° |
| 2026-05-06 22:15 | 34.35825 | -119.49372 | 27990 ft | 427 kts | 324° |
| 2026-05-06 22:15 | 34.37972 | -119.51850 | 28466 ft | 437 kts | 314° |
| 2026-05-06 22:15 | 34.39739 | -119.54900 | 28885 ft | 449 kts | 302° |
| 2026-05-06 22:15 | 34.41009 | -119.58389 | 29343 ft | 459 kts | 290° |
| 2026-05-06 22:16 | 34.41734 | -119.62196 | 29778 ft | 470 kts | 281° |
| 2026-05-06 22:16 | 34.41848 | -119.66195 | 30226 ft | 479 kts | 269° |
| 2026-05-06 22:16 | 34.41301 | -119.70208 | 30599 ft | 488 kts | 257° |
| 2026-05-06 22:16 | 34.40229 | -119.74134 | 30956 ft | 492 kts | 254° |
| 2026-05-06 22:17 | 34.39429 | -119.78170 | 31302 ft | 491 kts | 265° |
| 2026-05-06 22:17 | 34.39042 | -119.82288 | 31698 ft | 492 kts | 268° |
| 2026-05-06 22:17 | 34.38742 | -119.86419 | 32080 ft | 494 kts | 268° |
| 2026-05-06 22:17 | 34.38449 | -119.90582 | 32433 ft | 497 kts | 268° |
| 2026-05-06 22:18 | 34.38153 | -119.94758 | 32777 ft | 500 kts | 268° |
| 2026-05-06 22:18 | 34.37856 | -119.98904 | 33113 ft | 502 kts | 268° |
| 2026-05-06 22:18 | 34.37550 | -120.03128 | 33432 ft | 505 kts | 268° |
| 2026-05-06 22:18 | 34.37241 | -120.07378 | 33767 ft | 508 kts | 268° |
| 2026-05-06 22:19 | 34.36929 | -120.11649 | 34052 ft | 510 kts | 268° |
| 2026-05-06 22:19 | 34.36612 | -120.15943 | 34326 ft | 513 kts | 268° |
| 2026-05-06 22:19 | 34.36294 | -120.20246 | 34581 ft | 515 kts | 268° |
| 2026-05-06 22:19 | 34.35972 | -120.24574 | 34907 ft | 515 kts | 268° |
| 2026-05-06 22:20 | 34.35649 | -120.28885 | 35287 ft | 514 kts | 268° |
| 2026-05-06 22:20 | 34.35326 | -120.33186 | 35646 ft | 513 kts | 268° |
| 2026-05-06 22:20 | 34.35002 | -120.37488 | 35992 ft | 512 kts | 268° |
| 2026-05-06 22:20 | 34.34667 | -120.41776 | 36322 ft | 512 kts | 266° |
| 2026-05-06 22:21 | 34.34060 | -120.46020 | 36664 ft | 514 kts | 258° |
| 2026-05-06 22:21 | 34.32925 | -120.50076 | 36983 ft | 517 kts | 248° |
| 2026-05-06 22:21 | 34.31404 | -120.54085 | 37271 ft | 518 kts | 246° |
| 2026-05-06 22:21 | 34.29866 | -120.57952 | 37561 ft | 518 kts | 245° |
| 2026-05-06 22:22 | 34.28302 | -120.61870 | 37860 ft | 517 kts | 246° |
| 2026-05-06 22:22 | 34.26743 | -120.65787 | 38166 ft | 516 kts | 246° |
| 2026-05-06 22:22 | 34.25189 | -120.69696 | 38452 ft | 516 kts | 246° |
| 2026-05-06 22:22 | 34.23635 | -120.73609 | 38737 ft | 515 kts | 246° |
| 2026-05-06 22:23 | 34.22082 | -120.77515 | 38986 ft | 514 kts | 246° |
| 2026-05-06 22:23 | 34.20532 | -120.81412 | 39235 ft | 513 kts | 246° |
| 2026-05-06 22:23 | 34.18987 | -120.85291 | 39504 ft | 511 kts | 246° |
| 2026-05-06 22:23 | 34.17450 | -120.89148 | 39756 ft | 509 kts | 246° |
| 2026-05-06 22:24 | 34.15932 | -120.92953 | 39980 ft | 508 kts | 246° |
| 2026-05-06 22:24 | 34.14394 | -120.96805 | 40048 ft | 509 kts | 246° |
| 2026-05-06 22:24 | 34.11312 | -121.04508 | 40044 ft | 508 kts | 246° |
| 2026-05-06 22:25 | 34.08239 | -121.12172 | 40046 ft | 507 kts | 246° |
| 2026-05-06 22:25 | 34.05178 | -121.19789 | 40052 ft | 507 kts | 245° |
| 2026-05-06 22:26 | 34.03622 | -121.23604 | 40057 ft | 505 kts | 234° |
| 2026-05-06 22:26 | 34.01932 | -121.27318 | 40030 ft | 504 kts | 237° |
| 2026-05-06 22:26 | 33.98695 | -121.34820 | 40059 ft | 503 kts | 239° |
| 2026-05-06 22:27 | 33.95574 | -121.42378 | 40058 ft | 503 kts | 239° |
| 2026-05-06 22:27 | 33.92482 | -121.49954 | 40053 ft | 504 kts | 239° |
| 2026-05-06 22:28 | 33.89438 | -121.57514 | 40060 ft | 505 kts | 242° |
| 2026-05-06 22:28 | 33.86287 | -121.65077 | 40098 ft | 502 kts | 233° |
| 2026-05-06 22:29 | 33.84549 | -121.68680 | 40210 ft | 498 kts | 242° |
| 2026-05-06 22:29 | 33.83130 | -121.72487 | 40116 ft | 502 kts | 245° |
| 2026-05-06 22:29 | 33.80289 | -121.80236 | 40059 ft | 510 kts | 246° |
| 2026-05-06 22:30 | 33.77231 | -121.87913 | 40063 ft | 514 kts | 240° |
| 2026-05-06 22:30 | 33.73997 | -121.95575 | 40069 ft | 515 kts | 240° |
| 2026-05-06 22:31 | 33.70788 | -122.03289 | 40069 ft | 516 kts | 240° |
| 2026-05-06 22:31 | 33.67581 | -122.11032 | 40086 ft | 517 kts | 240° |
| 2026-05-06 22:32 | 33.64416 | -122.18778 | 40084 ft | 517 kts | 245° |
| 2026-05-06 22:32 | 33.61338 | -122.26549 | 40074 ft | 519 kts | 244° |
| 2026-05-06 22:33 | 33.58153 | -122.34339 | 40076 ft | 520 kts | 243° |
| 2026-05-06 22:33 | 33.54928 | -122.42118 | 40083 ft | 520 kts | 243° |
| 2026-05-06 22:34 | 33.51691 | -122.49882 | 40081 ft | 521 kts | 243° |
| 2026-05-06 22:34 | 33.48534 | -122.57690 | 40081 ft | 519 kts | 248° |
| 2026-05-06 22:35 | 33.46432 | -122.65927 | 40085 ft | 516 kts | 254° |
| 2026-05-06 22:35 | 33.44620 | -122.74194 | 40091 ft | 515 kts | 255° |
| 2026-05-06 22:36 | 33.42886 | -122.82519 | 40093 ft | 515 kts | 255° |
| 2026-05-06 22:36 | 33.41177 | -122.90809 | 40087 ft | 515 kts | 255° |
| 2026-05-06 22:37 | 33.39444 | -122.99167 | 40099 ft | 514 kts | 255° |
| 2026-05-06 22:37 | 33.37712 | -123.07465 | 40098 ft | 514 kts | 255° |
| 2026-05-06 22:38 | 33.35983 | -123.15708 | 40098 ft | 514 kts | 255° |
| 2026-05-06 22:38 | 33.34234 | -123.24014 | 40098 ft | 513 kts | 255° |
| 2026-05-06 22:39 | 33.32485 | -123.32299 | 40101 ft | 514 kts | 255° |
| 2026-05-06 22:39 | 33.30736 | -123.40552 | 40105 ft | 514 kts | 255° |
| 2026-05-06 22:40 | 33.28985 | -123.48855 | 40103 ft | 515 kts | 255° |
| 2026-05-06 22:40 | 33.27231 | -123.57168 | 40104 ft | 515 kts | 255° |
| 2026-05-06 22:41 | 33.24596 | -123.69618 | 40100 ft | 515 kts | 255° |
| 2026-05-06 22:42 | 33.22821 | -123.77916 | 40107 ft | 515 kts | 255° |
| 2026-05-06 22:42 | 33.21045 | -123.86160 | 40110 ft | 515 kts | 256° |
| 2026-05-06 22:43 | 33.19268 | -123.94454 | 40112 ft | 515 kts | 256° |
| 2026-05-06 22:43 | 33.17479 | -124.02731 | 40112 ft | 515 kts | 255° |
| 2026-05-06 22:44 | 33.15982 | -124.09604 | 40112 ft | 515 kts | 255° |
| 2026-05-06 22:44 | 33.14171 | -124.17874 | 40115 ft | 514 kts | 255° |
| 2026-05-06 22:45 | 33.12345 | -124.26132 | 40111 ft | 514 kts | 255° |
| 2026-05-06 22:45 | 33.10504 | -124.34384 | 40113 ft | 514 kts | 255° |
| 2026-05-06 22:46 | 33.08685 | -124.42580 | 40122 ft | 514 kts | 255° |
| 2026-05-06 22:46 | 33.06876 | -124.50827 | 40118 ft | 513 kts | 255° |
| 2026-05-06 22:47 | 33.05055 | -124.59067 | 40130 ft | 513 kts | 255° |
| 2026-05-06 22:47 | 33.03214 | -124.67299 | 40127 ft | 513 kts | 255° |
| 2026-05-06 22:48 | 33.01378 | -124.75464 | 40127 ft | 513 kts | 255° |
| 2026-05-06 22:48 | 32.99527 | -124.83669 | 40121 ft | 513 kts | 255° |
| 2026-05-06 22:49 | 32.97672 | -124.91869 | 40126 ft | 513 kts | 255° |
| 2026-05-06 22:49 | 32.95810 | -125.00071 | 40124 ft | 513 kts | 255° |
| 2026-05-06 22:50 | 32.93930 | -125.08249 | 40132 ft | 512 kts | 253° |
| 2026-05-06 22:50 | 32.92001 | -125.16413 | 40136 ft | 512 kts | 253° |
| 2026-05-06 22:51 | 32.90092 | -125.24577 | 40138 ft | 511 kts | 253° |
| 2026-05-06 22:51 | 32.88211 | -125.32756 | 40138 ft | 511 kts | 255° |
| 2026-05-06 22:52 | 32.86382 | -125.40887 | 40139 ft | 512 kts | 255° |
| 2026-05-06 22:52 | 32.84519 | -125.49066 | 40146 ft | 512 kts | 254° |
| 2026-05-06 22:53 | 32.82613 | -125.57219 | 40146 ft | 511 kts | 253° |
| 2026-05-06 22:53 | 32.80696 | -125.65366 | 40145 ft | 511 kts | 253° |
| 2026-05-06 22:54 | 32.78797 | -125.73466 | 40146 ft | 511 kts | 253° |
| 2026-05-06 22:54 | 32.76888 | -125.81611 | 40146 ft | 511 kts | 253° |
| 2026-05-06 22:55 | 32.74984 | -125.89755 | 40149 ft | 511 kts | 254° |
| 2026-05-06 22:55 | 32.73093 | -125.97904 | 40151 ft | 511 kts | 254° |
| 2026-05-06 22:56 | 32.71207 | -126.06007 | 40154 ft | 511 kts | 254° |
| 2026-05-06 22:56 | 32.69286 | -126.14145 | 40154 ft | 511 kts | 254° |
| 2026-05-06 22:57 | 32.67345 | -126.22296 | 40157 ft | 511 kts | 254° |
| 2026-05-06 22:57 | 32.65415 | -126.30370 | 40151 ft | 511 kts | 254° |
| 2026-05-06 22:58 | 32.63467 | -126.38493 | 40153 ft | 511 kts | 254° |
| 2026-05-06 22:58 | 32.61517 | -126.46608 | 40161 ft | 511 kts | 253° |
| 2026-05-06 22:59 | 32.59507 | -126.54668 | 40150 ft | 510 kts | 250° |
| 2026-05-06 22:59 | 32.57426 | -126.62707 | 40160 ft | 510 kts | 253° |
| 2026-05-06 23:00 | 32.55499 | -126.70814 | 40162 ft | 510 kts | 254° |
| 2026-05-06 23:00 | 32.53607 | -126.78933 | 40159 ft | 511 kts | 253° |
| 2026-05-06 23:01 | 32.51678 | -126.87044 | 40161 ft | 511 kts | 253° |
| 2026-05-06 23:01 | 32.49732 | -126.95098 | 40166 ft | 511 kts | 253° |
| 2026-05-06 23:02 | 32.47748 | -127.03196 | 40165 ft | 511 kts | 253° |
| 2026-05-06 23:02 | 32.45756 | -127.11275 | 40165 ft | 511 kts | 253° |
| 2026-05-06 23:03 | 32.43769 | -127.19310 | 40166 ft | 511 kts | 253° |
| 2026-05-06 23:03 | 32.41769 | -127.27379 | 40165 ft | 511 kts | 253° |
| 2026-05-06 23:04 | 32.39764 | -127.35442 | 40165 ft | 510 kts | 253° |
| 2026-05-06 23:04 | 32.37756 | -127.43496 | 40168 ft | 510 kts | 253° |
| 2026-05-06 23:05 | 32.35742 | -127.51552 | 40165 ft | 510 kts | 252° |
| 2026-05-06 23:05 | 32.33724 | -127.59595 | 40166 ft | 510 kts | 252° |
| 2026-05-06 23:06 | 32.31715 | -127.67580 | 40166 ft | 510 kts | 252° |
| 2026-05-06 23:06 | 32.29687 | -127.75615 | 40171 ft | 509 kts | 252° |
| 2026-05-06 23:07 | 32.27658 | -127.83633 | 40171 ft | 509 kts | 252° |
| 2026-05-06 23:07 | 32.25625 | -127.91643 | 40174 ft | 508 kts | 252° |
| 2026-05-06 23:08 | 32.23588 | -127.99646 | 40173 ft | 507 kts | 250° |
| 2026-05-06 23:08 | 32.21455 | -128.07521 | 40173 ft | 506 kts | 249° |
| 2026-05-06 23:09 | 32.19311 | -128.15430 | 40174 ft | 505 kts | 250° |
| 2026-05-06 23:09 | 32.17241 | -128.23352 | 40176 ft | 504 kts | 250° |
| 2026-05-06 23:10 | 32.15203 | -128.31269 | 40177 ft | 504 kts | 250° |
| 2026-05-06 23:10 | 32.13166 | -128.39181 | 40176 ft | 504 kts | 250° |
| 2026-05-06 23:11 | 32.11123 | -128.47082 | 40177 ft | 503 kts | 250° |
| 2026-05-06 23:11 | 32.09071 | -128.54983 | 40177 ft | 503 kts | 250° |
| 2026-05-06 23:12 | 32.07014 | -128.62882 | 40177 ft | 503 kts | 250° |
| 2026-05-06 23:12 | 32.04954 | -128.70766 | 40176 ft | 503 kts | 250° |
| 2026-05-06 23:13 | 32.02897 | -128.78616 | 40180 ft | 503 kts | 250° |
| 2026-05-06 23:13 | 32.00830 | -128.86487 | 40180 ft | 503 kts | 250° |
| 2026-05-06 23:14 | 31.98754 | -128.94367 | 40179 ft | 503 kts | 250° |
| 2026-05-06 23:14 | 31.96687 | -129.02191 | 40175 ft | 502 kts | 250° |
| 2026-05-06 23:15 | 31.94607 | -129.10045 | 40179 ft | 502 kts | 250° |
| 2026-05-06 23:15 | 31.92519 | -129.17905 | 40180 ft | 502 kts | 250° |
| 2026-05-06 23:16 | 31.90427 | -129.25758 | 40176 ft | 502 kts | 250° |
| 2026-05-06 23:16 | 31.88332 | -129.33604 | 40181 ft | 502 kts | 250° |
| 2026-05-06 23:17 | 31.86250 | -129.41374 | 40183 ft | 501 kts | 250° |
| 2026-05-06 23:17 | 31.84147 | -129.49204 | 40183 ft | 501 kts | 249° |
| 2026-05-06 23:18 | 31.82043 | -129.57017 | 40182 ft | 501 kts | 250° |
| 2026-05-06 23:18 | 31.79934 | -129.64829 | 40180 ft | 500 kts | 249° |
| 2026-05-06 23:19 | 31.77826 | -129.72615 | 40183 ft | 500 kts | 249° |
| 2026-05-06 23:19 | 31.75728 | -129.80342 | 40188 ft | 500 kts | 249° |
| 2026-05-06 23:20 | 31.73610 | -129.88118 | 40188 ft | 499 kts | 249° |
| 2026-05-06 23:20 | 31.71495 | -129.95868 | 40188 ft | 498 kts | 249° |
| 2026-05-06 23:21 | 31.69370 | -130.03634 | 40183 ft | 498 kts | 249° |
| 2026-05-06 23:21 | 31.67248 | -130.11363 | 40187 ft | 497 kts | 249° |
| 2026-05-06 23:22 | 31.65136 | -130.19039 | 40185 ft | 497 kts | 249° |
| 2026-05-06 23:22 | 31.63008 | -130.26756 | 40183 ft | 496 kts | 249° |
| 2026-05-06 23:23 | 31.60881 | -130.34443 | 40185 ft | 495 kts | 249° |
| 2026-05-06 23:23 | 31.58749 | -130.42132 | 40190 ft | 495 kts | 249° |
| 2026-05-06 23:24 | 31.56625 | -130.49771 | 40190 ft | 494 kts | 249° |
| 2026-05-06 23:24 | 31.54491 | -130.57427 | 40193 ft | 493 kts | 249° |
| 2026-05-06 23:25 | 31.52353 | -130.65076 | 40194 ft | 493 kts | 249° |
| 2026-05-06 23:25 | 31.50211 | -130.72723 | 40190 ft | 493 kts | 249° |
| 2026-05-06 23:26 | 31.48081 | -130.80305 | 40189 ft | 493 kts | 249° |
| 2026-05-06 23:26 | 31.45933 | -130.87933 | 40189 ft | 493 kts | 249° |
| 2026-05-06 23:27 | 31.43778 | -130.95565 | 40191 ft | 492 kts | 249° |
| 2026-05-06 23:27 | 31.41622 | -131.03177 | 40192 ft | 492 kts | 249° |
| 2026-05-06 23:28 | 31.39465 | -131.10779 | 40194 ft | 492 kts | 249° |
| 2026-05-06 23:28 | 31.37305 | -131.18373 | 40192 ft | 491 kts | 249° |
| 2026-05-06 23:29 | 31.35153 | -131.25912 | 40193 ft | 491 kts | 249° |
| 2026-05-06 23:29 | 31.32984 | -131.33499 | 40193 ft | 491 kts | 249° |
| 2026-05-06 23:30 | 31.30813 | -131.41067 | 40196 ft | 490 kts | 250° |
| 2026-05-06 23:30 | 31.28642 | -131.48619 | 40189 ft | 490 kts | 250° |
| 2026-05-06 23:31 | 31.26479 | -131.56129 | 40191 ft | 490 kts | 250° |
| 2026-05-06 23:31 | 31.24303 | -131.63662 | 40199 ft | 489 kts | 250° |
| 2026-05-06 23:32 | 31.22474 | -131.69980 | 40198 ft | 489 kts | 250° |
| 2026-05-06 23:32 | 31.20306 | -131.77455 | 40193 ft | 489 kts | 250° |
| 2026-05-06 23:33 | 31.18122 | -131.84961 | 40194 ft | 488 kts | 250° |
| 2026-05-06 23:33 | 31.15932 | -131.92472 | 40199 ft | 488 kts | 250° |
| 2026-05-06 23:34 | 31.13739 | -131.99973 | 40192 ft | 488 kts | 250° |
| 2026-05-06 23:34 | 31.11544 | -132.07465 | 40195 ft | 487 kts | 250° |
| 2026-05-06 23:35 | 31.09344 | -132.14958 | 40193 ft | 487 kts | 250° |
| 2026-05-06 23:35 | 31.07140 | -132.22435 | 40183 ft | 487 kts | 250° |
| 2026-05-06 23:36 | 31.04931 | -132.29909 | 40192 ft | 487 kts | 250° |
| 2026-05-06 23:36 | 31.02735 | -132.37323 | 40195 ft | 487 kts | 250° |
| 2026-05-06 23:37 | 31.00519 | -132.44788 | 40192 ft | 486 kts | 250° |
| 2026-05-06 23:37 | 30.98300 | -132.52247 | 40191 ft | 486 kts | 250° |
| 2026-05-06 23:38 | 30.96081 | -132.59687 | 40199 ft | 486 kts | 250° |
| 2026-05-06 23:38 | 30.93876 | -132.67065 | 40185 ft | 485 kts | 250° |
| 2026-05-06 23:39 | 30.91648 | -132.74500 | 40188 ft | 485 kts | 250° |
| 2026-05-06 23:39 | 30.89422 | -132.81911 | 40190 ft | 485 kts | 250° |
| 2026-05-06 23:40 | 30.87190 | -132.89324 | 40191 ft | 485 kts | 250° |
| 2026-05-06 23:40 | 30.84969 | -132.96686 | 40190 ft | 485 kts | 250° |
| 2026-05-06 23:41 | 30.82728 | -133.04094 | 40187 ft | 484 kts | 250° |
| 2026-05-06 23:41 | 30.80484 | -133.11492 | 40189 ft | 484 kts | 250° |
| 2026-05-06 23:42 | 30.78243 | -133.18868 | 40190 ft | 484 kts | 250° |
| 2026-05-06 23:42 | 30.75995 | -133.26249 | 40189 ft | 483 kts | 250° |
| 2026-05-06 23:43 | 30.73755 | -133.33556 | 40189 ft | 482 kts | 248° |
| 2026-05-06 23:43 | 30.71380 | -133.40841 | 40187 ft | 481 kts | 247° |
| 2026-05-06 23:44 | 30.69045 | -133.48125 | 40190 ft | 479 kts | 248° |
| 2026-05-06 23:44 | 30.66800 | -133.55350 | 40190 ft | 478 kts | 248° |
| 2026-05-06 23:45 | 30.64561 | -133.62632 | 40189 ft | 477 kts | 248° |
| 2026-05-06 23:45 | 30.62328 | -133.69884 | 40190 ft | 476 kts | 248° |
| 2026-05-06 23:46 | 30.60011 | -133.77085 | 40179 ft | 474 kts | 242° |
| 2026-05-06 23:46 | 30.57561 | -133.84085 | 40174 ft | 468 kts | 243° |
| 2026-05-06 23:47 | 30.55254 | -133.91105 | 40183 ft | 462 kts | 244° |
| 2026-05-06 23:47 | 30.53076 | -133.98090 | 40180 ft | 458 kts | 245° |
| 2026-05-06 23:48 | 30.50946 | -134.05012 | 40192 ft | 454 kts | 245° |
| 2026-05-06 23:48 | 30.48840 | -134.11829 | 40194 ft | 451 kts | 244° |
| 2026-05-06 23:49 | 30.46723 | -134.18643 | 40179 ft | 447 kts | 244° |
| 2026-05-06 23:49 | 30.44612 | -134.25409 | 40186 ft | 445 kts | 244° |
| 2026-05-06 23:50 | 30.42507 | -134.32136 | 40185 ft | 442 kts | 244° |
| 2026-05-06 23:50 | 30.39366 | -134.42145 | 40180 ft | 439 kts | 244° |
| 2026-05-06 23:51 | 30.37295 | -134.48727 | 40190 ft | 436 kts | 244° |
| 2026-05-06 23:51 | 30.35216 | -134.55319 | 40182 ft | 434 kts | 244° |
| 2026-05-06 23:52 | 30.33144 | -134.61872 | 40172 ft | 432 kts | 244° |
| 2026-05-06 23:52 | 30.31078 | -134.68390 | 40183 ft | 430 kts | 244° |
| 2026-05-06 23:53 | 30.29021 | -134.74871 | 40182 ft | 428 kts | 244° |
| 2026-05-06 23:53 | 30.26967 | -134.81334 | 40182 ft | 426 kts | 244° |
| 2026-05-06 23:54 | 30.24920 | -134.87757 | 40184 ft | 424 kts | 244° |
| 2026-05-06 23:54 | 30.22889 | -134.94111 | 40181 ft | 423 kts | 244° |
| 2026-05-06 23:55 | 30.20850 | -135.00475 | 40174 ft | 421 kts | 244° |
| 2026-05-06 23:55 | 30.18818 | -135.06809 | 40179 ft | 419 kts | 244° |
| 2026-05-06 23:56 | 30.16804 | -135.13079 | 40179 ft | 417 kts | 244° |
| 2026-05-06 23:56 | 30.14781 | -135.19366 | 40179 ft | 415 kts | 243° |
| 2026-05-06 23:57 | 30.12773 | -135.25597 | 40182 ft | 413 kts | 243° |
| 2026-05-06 23:57 | 30.10778 | -135.31766 | 40179 ft | 411 kts | 243° |
| 2026-05-06 23:58 | 30.08779 | -135.37938 | 40180 ft | 409 kts | 243° |
| 2026-05-06 23:58 | 30.06787 | -135.44080 | 40178 ft | 407 kts | 243° |
| 2026-05-06 23:59 | 30.04795 | -135.50210 | 40179 ft | 406 kts | 243° |
| 2026-05-06 23:59 | 30.02817 | -135.56287 | 40179 ft | 404 kts | 243° |
| 2026-05-07 00:00 | 30.00853 | -135.62308 | 40182 ft | 402 kts | 243° |
| 2026-05-07 00:00 | 29.99213 | -135.67322 | 40182 ft | 400 kts | 243° |
| 2026-05-07 00:01 | 29.96916 | -135.74337 | 40182 ft | 398 kts | 243° |
| 2026-05-07 00:01 | 29.94961 | -135.80298 | 40180 ft | 396 kts | 243° |
| 2026-05-07 00:02 | 29.93024 | -135.86192 | 40179 ft | 394 kts | 243° |
| 2026-05-07 00:02 | 29.91078 | -135.92104 | 40177 ft | 393 kts | 243° |
| 2026-05-07 00:03 | 29.89145 | -135.97971 | 40180 ft | 390 kts | 242° |
| 2026-05-07 00:03 | 29.87219 | -136.03805 | 40180 ft | 388 kts | 242° |
| 2026-05-07 00:04 | 29.85300 | -136.09610 | 40180 ft | 386 kts | 242° |
| 2026-05-07 00:04 | 29.83388 | -136.15383 | 40178 ft | 384 kts | 242° |
| 2026-05-07 00:05 | 29.81498 | -136.21081 | 40177 ft | 382 kts | 242° |
| 2026-05-07 00:05 | 29.79599 | -136.26793 | 40176 ft | 380 kts | 242° |
| 2026-05-07 00:06 | 29.77725 | -136.32430 | 40176 ft | 377 kts | 242° |
| 2026-05-07 00:06 | 29.75852 | -136.38057 | 40178 ft | 375 kts | 242° |
| 2026-05-07 00:07 | 29.73984 | -136.43648 | 40176 ft | 373 kts | 242° |
| 2026-05-07 00:07 | 29.72123 | -136.49213 | 40179 ft | 370 kts | 242° |
| 2026-05-07 00:08 | 29.70280 | -136.54722 | 40175 ft | 367 kts | 242° |
| 2026-05-07 00:08 | 29.68449 | -136.60188 | 40177 ft | 364 kts | 242° |
| 2026-05-07 00:09 | 29.66642 | -136.65571 | 40176 ft | 362 kts | 242° |
| 2026-05-07 00:09 | 29.64836 | -136.70949 | 40173 ft | 358 kts | 242° |
| 2026-05-07 00:10 | 29.63043 | -136.76281 | 40173 ft | 355 kts | 242° |
| 2026-05-07 00:10 | 29.61271 | -136.81547 | 40169 ft | 351 kts | 242° |
| 2026-05-07 00:11 | 29.59527 | -136.86728 | 40170 ft | 347 kts | 242° |
| 2026-05-07 00:11 | 29.57791 | -136.91885 | 40169 ft | 343 kts | 242° |
| 2026-05-07 00:12 | 29.56092 | -136.96925 | 40171 ft | 338 kts | 242° |
| 2026-05-07 00:12 | 29.54408 | -137.01916 | 40169 ft | 332 kts | 242° |
| 2026-05-07 00:13 | 29.52755 | -137.06815 | 40168 ft | 326 kts | 242° |
| 2026-05-07 00:13 | 29.51136 | -137.11619 | 40164 ft | 318 kts | 242° |
| 2026-05-07 00:14 | 29.49561 | -137.16298 | 40162 ft | 310 kts | 242° |
| 2026-05-07 00:14 | 29.47471 | -137.20514 | 39713 ft | 324 kts | 207° |
| 2026-05-07 00:15 | 29.45170 | -137.21164 | 37947 ft | 376 kts | 163° |
| 2026-05-07 00:15 | 29.42951 | -137.19567 | 36645 ft | 394 kts | 113° |
| 2026-05-07 00:15 | 29.42494 | -137.16604 | 36659 ft | 376 kts | 64° |
| 2026-05-07 00:15 | 29.43880 | -137.14278 | 36993 ft | 349 kts | 21° |
| 2026-05-07 00:16 | 29.46151 | -137.13631 | 36585 ft | 342 kts | 339° |
| 2026-05-07 00:16 | 29.48155 | -137.14975 | 35703 ft | 343 kts | 294° |
| 2026-05-07 00:16 | 29.48648 | -137.17543 | 34927 ft | 345 kts | 248° |
| 2026-05-07 00:16 | 29.47248 | -137.19711 | 34561 ft | 352 kts | 200° |
| 2026-05-07 00:17 | 29.44868 | -137.19953 | 34619 ft | 354 kts | 153° |
| 2026-05-07 00:17 | 29.43029 | -137.18175 | 34639 ft | 354 kts | 108° |
| 2026-05-07 00:17 | 29.42656 | -137.16373 | 34534 ft | 355 kts | 77° |
| 2026-05-07 00:17 | 29.44288 | -137.13263 | 34063 ft | 353 kts | 15° |
| 2026-05-07 00:18 | 29.45839 | -137.12843 | 33812 ft | 349 kts | 345° |
| 2026-05-07 00:18 | 29.48843 | -137.14075 | 33453 ft | 351 kts | 325° |
| 2026-05-07 00:18 | 29.50788 | -137.15738 | 33566 ft | 351 kts | 302° |
| 2026-05-07 00:18 | 29.51816 | -137.18230 | 33811 ft | 348 kts | 277° |
| 2026-05-07 00:19 | 29.51741 | -137.20996 | 34001 ft | 351 kts | 251° |
| 2026-05-07 00:19 | 29.50605 | -137.23467 | 34196 ft | 355 kts | 230° |
| 2026-05-07 00:19 | 29.47797 | -137.27012 | 34325 ft | 367 kts | 225° |
| 2026-05-07 00:20 | 29.44792 | -137.31856 | 34463 ft | 380 kts | 240° |
| 2026-05-07 00:20 | 29.43608 | -137.34591 | 34569 ft | 386 kts | 245° |
| 2026-05-07 00:20 | 29.42560 | -137.37452 | 34686 ft | 392 kts | 248° |
| 2026-05-07 00:21 | 29.41578 | -137.40397 | 34828 ft | 398 kts | 248° |
| 2026-05-07 00:21 | 29.40606 | -137.43391 | 34970 ft | 403 kts | 248° |
| 2026-05-07 00:21 | 29.39596 | -137.46413 | 35110 ft | 409 kts | 247° |
| 2026-05-07 00:21 | 29.38545 | -137.49475 | 35244 ft | 415 kts | 247° |
| 2026-05-07 00:22 | 29.37472 | -137.52567 | 35378 ft | 420 kts | 246° |
| 2026-05-07 00:22 | 29.36378 | -137.55697 | 35505 ft | 426 kts | 246° |
| 2026-05-07 00:22 | 29.35259 | -137.58869 | 35632 ft | 431 kts | 246° |
| 2026-05-07 00:22 | 29.34122 | -137.62083 | 35767 ft | 436 kts | 246° |
| 2026-05-07 00:23 | 29.32995 | -137.65278 | 35891 ft | 441 kts | 246° |
| 2026-05-07 00:23 | 29.31840 | -137.68561 | 36011 ft | 446 kts | 246° |
| 2026-05-07 00:23 | 29.30674 | -137.71885 | 36132 ft | 451 kts | 246° |
| 2026-05-07 00:23 | 29.29500 | -137.75250 | 36252 ft | 456 kts | 247° |
| 2026-05-07 00:24 | 29.28325 | -137.78640 | 36393 ft | 460 kts | 247° |
| 2026-05-07 00:24 | 29.27144 | -137.82051 | 36639 ft | 461 kts | 247° |
| 2026-05-07 00:24 | 29.25957 | -137.85471 | 36966 ft | 460 kts | 247° |
| 2026-05-07 00:24 | 29.24772 | -137.88875 | 37296 ft | 460 kts | 247° |
| 2026-05-07 00:25 | 29.23584 | -137.92279 | 37598 ft | 459 kts | 247° |
| 2026-05-07 00:25 | 29.22398 | -137.95673 | 37906 ft | 458 kts | 247° |
| 2026-05-07 00:25 | 29.21230 | -137.99011 | 38228 ft | 457 kts | 247° |
| 2026-05-07 00:25 | 29.20042 | -138.02383 | 38532 ft | 456 kts | 246° |
| 2026-05-07 00:26 | 29.18838 | -138.05735 | 38828 ft | 454 kts | 246° |
| 2026-05-07 00:26 | 29.17624 | -138.09077 | 39046 ft | 454 kts | 245° |
| 2026-05-07 00:26 | 29.16402 | -138.12410 | 39220 ft | 453 kts | 245° |
| 2026-05-07 00:26 | 29.15197 | -138.15735 | 39405 ft | 452 kts | 246° |
| 2026-05-07 00:27 | 29.14018 | -138.19074 | 39616 ft | 451 kts | 246° |
| 2026-05-07 00:27 | 29.12871 | -138.22358 | 39815 ft | 450 kts | 246° |
| 2026-05-07 00:27 | 29.11714 | -138.25682 | 40045 ft | 448 kts | 247° |
| 2026-05-07 00:27 | 29.10560 | -138.29007 | 40145 ft | 450 kts | 247° |
| 2026-05-07 00:28 | 29.08211 | -138.35727 | 40152 ft | 457 kts | 247° |
| 2026-05-07 00:28 | 29.05823 | -138.42477 | 40156 ft | 464 kts | 247° |
| 2026-05-07 00:29 | 29.03391 | -138.49358 | 40151 ft | 468 kts | 247° |
| 2026-05-07 00:30 | 28.98457 | -138.63210 | 40151 ft | 472 kts | 246° |
| 2026-05-07 00:30 | 28.95973 | -138.70151 | 40150 ft | 471 kts | 246° |
| 2026-05-07 00:31 | 28.93502 | -138.76979 | 40144 ft | 458 kts | 246° |
| 2026-05-07 00:31 | 28.91114 | -138.83650 | 40155 ft | 455 kts | 247° |
| 2026-05-07 00:32 | 28.88734 | -138.90404 | 40152 ft | 462 kts | 247° |
| 2026-05-07 00:32 | 28.86282 | -138.97220 | 40147 ft | 467 kts | 246° |
| 2026-05-07 00:33 | 28.83772 | -139.04074 | 40145 ft | 469 kts | 245° |
| 2026-05-07 00:33 | 28.81212 | -139.10912 | 40146 ft | 469 kts | 245° |
| 2026-05-07 00:34 | 28.78755 | -139.17807 | 40143 ft | 469 kts | 248° |
| 2026-05-07 00:34 | 28.76347 | -139.24710 | 40149 ft | 469 kts | 247° |
| 2026-05-07 00:35 | 28.73842 | -139.31536 | 40149 ft | 468 kts | 245° |
| 2026-05-07 00:35 | 28.71319 | -139.38378 | 40142 ft | 468 kts | 246° |
| 2026-05-07 00:36 | 28.68858 | -139.45243 | 40143 ft | 468 kts | 247° |
| 2026-05-07 00:36 | 28.66382 | -139.52095 | 40141 ft | 467 kts | 247° |
| 2026-05-07 00:37 | 28.63792 | -139.58879 | 40138 ft | 466 kts | 242° |
| 2026-05-07 00:37 | 28.61157 | -139.65618 | 40137 ft | 466 kts | 246° |
| 2026-05-07 00:38 | 28.58718 | -139.72411 | 40137 ft | 467 kts | 247° |
| 2026-05-07 00:38 | 28.56267 | -139.79255 | 40139 ft | 467 kts | 246° |
| 2026-05-07 00:39 | 28.53763 | -139.86089 | 40144 ft | 466 kts | 246° |
| 2026-05-07 00:39 | 28.51259 | -139.92843 | 40138 ft | 467 kts | 246° |
| 2026-05-07 00:40 | 28.48725 | -139.99650 | 40138 ft | 467 kts | 246° |
| 2026-05-07 00:40 | 28.46191 | -140.06454 | 40132 ft | 467 kts | 246° |
| 2026-05-07 00:41 | 28.43656 | -140.13251 | 40135 ft | 466 kts | 246° |
| 2026-05-07 00:41 | 28.41137 | -140.19994 | 40137 ft | 467 kts | 246° |
| 2026-05-07 00:42 | 28.38596 | -140.26784 | 40126 ft | 467 kts | 246° |
| 2026-05-07 00:42 | 28.36052 | -140.33570 | 40127 ft | 467 kts | 246° |
| 2026-05-07 00:43 | 28.33500 | -140.40364 | 40116 ft | 467 kts | 246° |
| 2026-05-07 00:43 | 28.30947 | -140.47146 | 40119 ft | 467 kts | 246° |
| 2026-05-07 00:44 | 28.28406 | -140.53889 | 40119 ft | 467 kts | 246° |
| 2026-05-07 00:44 | 28.25844 | -140.60674 | 40119 ft | 467 kts | 246° |
| 2026-05-07 00:45 | 28.23280 | -140.67449 | 40123 ft | 467 kts | 246° |
| 2026-05-07 00:45 | 28.20710 | -140.74231 | 40121 ft | 468 kts | 246° |
| 2026-05-07 00:46 | 28.18151 | -140.80973 | 40118 ft | 468 kts | 246° |
| 2026-05-07 00:46 | 28.15574 | -140.87747 | 40127 ft | 468 kts | 246° |
| 2026-05-07 00:47 | 28.12992 | -140.94524 | 40123 ft | 467 kts | 246° |
| 2026-05-07 00:47 | 28.10412 | -141.01284 | 40121 ft | 467 kts | 246° |
| 2026-05-07 00:48 | 28.07826 | -141.08048 | 40113 ft | 468 kts | 246° |
| 2026-05-07 00:48 | 28.05235 | -141.14811 | 40113 ft | 468 kts | 246° |
| 2026-05-07 00:49 | 28.02641 | -141.21572 | 40112 ft | 468 kts | 246° |
| 2026-05-07 00:49 | 28.00042 | -141.28333 | 40110 ft | 468 kts | 246° |
| 2026-05-07 00:50 | 27.97460 | -141.35038 | 40107 ft | 468 kts | 246° |
| 2026-05-07 00:50 | 27.94859 | -141.41781 | 40109 ft | 467 kts | 246° |
| 2026-05-07 00:51 | 27.92254 | -141.48524 | 40109 ft | 467 kts | 246° |
| 2026-05-07 00:51 | 27.89647 | -141.55261 | 40107 ft | 467 kts | 246° |
| 2026-05-07 00:52 | 27.87039 | -141.61986 | 40107 ft | 467 kts | 246° |
| 2026-05-07 00:52 | 27.84443 | -141.68668 | 40103 ft | 466 kts | 246° |
| 2026-05-07 00:53 | 27.81825 | -141.75399 | 40102 ft | 466 kts | 246° |
| 2026-05-07 00:53 | 27.79230 | -141.82056 | 40102 ft | 466 kts | 246° |
| 2026-05-07 00:54 | 27.76618 | -141.88746 | 40098 ft | 465 kts | 246° |
| 2026-05-07 00:54 | 27.74008 | -141.95421 | 40094 ft | 465 kts | 245° |
| 2026-05-07 00:55 | 27.71394 | -142.02094 | 40086 ft | 465 kts | 246° |
| 2026-05-07 00:55 | 27.68772 | -142.08776 | 40091 ft | 464 kts | 245° |
| 2026-05-07 00:56 | 27.66155 | -142.15432 | 40090 ft | 464 kts | 245° |
| 2026-05-07 00:56 | 27.63530 | -142.22099 | 40091 ft | 464 kts | 245° |
| 2026-05-07 00:57 | 27.60904 | -142.28756 | 40082 ft | 464 kts | 245° |
| 2026-05-07 00:57 | 27.58298 | -142.35355 | 40082 ft | 464 kts | 245° |
| 2026-05-07 00:58 | 27.55666 | -142.42004 | 40087 ft | 464 kts | 246° |
| 2026-05-07 00:58 | 27.53063 | -142.48658 | 40085 ft | 464 kts | 246° |
| 2026-05-07 00:59 | 27.49147 | -142.58651 | 40083 ft | 464 kts | 246° |
| 2026-05-07 01:00 | 27.46509 | -142.65293 | 40083 ft | 464 kts | 246° |
| 2026-05-07 01:00 | 27.43863 | -142.71923 | 40082 ft | 464 kts | 246° |
| 2026-05-07 01:01 | 27.41228 | -142.78518 | 40080 ft | 464 kts | 246° |
| 2026-05-07 01:01 | 27.38576 | -142.85146 | 40082 ft | 464 kts | 246° |
| 2026-05-07 01:02 | 27.35916 | -142.91784 | 40082 ft | 464 kts | 246° |
| 2026-05-07 01:02 | 27.33259 | -142.98403 | 40078 ft | 465 kts | 246° |
| 2026-05-07 01:03 | 27.30594 | -143.05031 | 40076 ft | 465 kts | 246° |
| 2026-05-07 01:03 | 27.27926 | -143.11657 | 40077 ft | 465 kts | 246° |
| 2026-05-07 01:04 | 27.25249 | -143.18292 | 40077 ft | 465 kts | 246° |
| 2026-05-07 01:04 | 27.23026 | -143.23795 | 40075 ft | 465 kts | 246° |
| 2026-05-07 01:05 | 27.19905 | -143.31506 | 40077 ft | 466 kts | 245° |
| 2026-05-07 01:05 | 27.17218 | -143.38137 | 40067 ft | 466 kts | 246° |
| 2026-05-07 01:06 | 27.14964 | -143.43686 | 40071 ft | 466 kts | 245° |
| 2026-05-07 01:06 | 27.12289 | -143.50266 | 40073 ft | 466 kts | 245° |
| 2026-05-07 01:07 | 27.09593 | -143.56887 | 40068 ft | 466 kts | 245° |
| 2026-05-07 01:07 | 27.06887 | -143.63518 | 40073 ft | 466 kts | 245° |
| 2026-05-07 01:08 | 27.04184 | -143.70135 | 40071 ft | 466 kts | 245° |
| 2026-05-07 01:08 | 27.01492 | -143.76712 | 40073 ft | 466 kts | 245° |
| 2026-05-07 01:09 | 26.98779 | -143.83332 | 40071 ft | 467 kts | 245° |
| 2026-05-07 01:09 | 26.96064 | -143.89944 | 40063 ft | 467 kts | 245° |
| 2026-05-07 01:10 | 26.93344 | -143.96557 | 40073 ft | 467 kts | 245° |
| 2026-05-07 01:10 | 26.90618 | -144.03176 | 40069 ft | 467 kts | 245° |
| 2026-05-07 01:11 | 26.87891 | -144.09786 | 40063 ft | 468 kts | 245° |
| 2026-05-07 01:11 | 26.85173 | -144.16361 | 40063 ft | 468 kts | 245° |
| 2026-05-07 01:12 | 26.82433 | -144.22982 | 40060 ft | 468 kts | 245° |
| 2026-05-07 01:12 | 26.79690 | -144.29597 | 40057 ft | 468 kts | 245° |
| 2026-05-07 01:13 | 26.76940 | -144.36219 | 40059 ft | 468 kts | 245° |
| 2026-05-07 01:13 | 26.74211 | -144.42783 | 40054 ft | 468 kts | 245° |
| 2026-05-07 01:14 | 26.71459 | -144.49389 | 40058 ft | 468 kts | 245° |
| 2026-05-07 01:14 | 26.68705 | -144.55989 | 40056 ft | 468 kts | 245° |
| 2026-05-07 01:15 | 26.65945 | -144.62595 | 40058 ft | 469 kts | 245° |
| 2026-05-07 01:15 | 26.63182 | -144.69195 | 40052 ft | 469 kts | 245° |
| 2026-05-07 01:16 | 26.60429 | -144.75761 | 40044 ft | 469 kts | 245° |
| 2026-05-07 01:16 | 26.57657 | -144.82365 | 40053 ft | 469 kts | 245° |
| 2026-05-07 01:17 | 26.54879 | -144.88969 | 40050 ft | 469 kts | 245° |
| 2026-05-07 01:17 | 26.52118 | -144.95525 | 40050 ft | 469 kts | 245° |
| 2026-05-07 01:18 | 26.49336 | -145.02127 | 40051 ft | 469 kts | 245° |
| 2026-05-07 01:18 | 26.46572 | -145.08726 | 40049 ft | 469 kts | 245° |
| 2026-05-07 01:19 | 26.43797 | -145.15321 | 40049 ft | 469 kts | 245° |
| 2026-05-07 01:19 | 26.41027 | -145.21863 | 40044 ft | 469 kts | 245° |
| 2026-05-07 01:20 | 26.38233 | -145.28444 | 40045 ft | 469 kts | 245° |
| 2026-05-07 01:20 | 26.35438 | -145.35013 | 40045 ft | 469 kts | 245° |
| 2026-05-07 01:21 | 26.32636 | -145.41594 | 40041 ft | 469 kts | 245° |
| 2026-05-07 01:21 | 26.29854 | -145.48117 | 40033 ft | 469 kts | 245° |
| 2026-05-07 01:22 | 26.27048 | -145.54685 | 40042 ft | 469 kts | 245° |
| 2026-05-07 01:22 | 26.24237 | -145.61256 | 40038 ft | 469 kts | 245° |
| 2026-05-07 01:23 | 26.21423 | -145.67822 | 40038 ft | 469 kts | 245° |
| 2026-05-07 01:23 | 26.18609 | -145.74381 | 40036 ft | 469 kts | 245° |
| 2026-05-07 01:24 | 26.15789 | -145.80941 | 40037 ft | 469 kts | 245° |
| 2026-05-07 01:24 | 26.12984 | -145.87457 | 40035 ft | 470 kts | 245° |
| 2026-05-07 01:25 | 26.10155 | -145.94019 | 40036 ft | 470 kts | 245° |
| 2026-05-07 01:25 | 26.07324 | -146.00576 | 40031 ft | 470 kts | 245° |
| 2026-05-07 01:26 | 26.04486 | -146.07138 | 40031 ft | 470 kts | 245° |
| 2026-05-07 01:26 | 26.01667 | -146.13647 | 40031 ft | 470 kts | 245° |
| 2026-05-07 01:27 | 25.98823 | -146.20207 | 40017 ft | 470 kts | 245° |
| 2026-05-07 01:27 | 25.95983 | -146.26758 | 40031 ft | 470 kts | 245° |
| 2026-05-07 01:28 | 25.93134 | -146.33317 | 40032 ft | 471 kts | 245° |
| 2026-05-07 01:28 | 25.90285 | -146.39867 | 40031 ft | 471 kts | 245° |
| 2026-05-07 01:29 | 25.87449 | -146.46377 | 40028 ft | 471 kts | 244° |
| 2026-05-07 01:29 | 25.84588 | -146.52935 | 40028 ft | 471 kts | 244° |
| 2026-05-07 01:30 | 25.81727 | -146.59483 | 40025 ft | 471 kts | 244° |
| 2026-05-07 01:30 | 25.78879 | -146.65994 | 40025 ft | 472 kts | 244° |
| 2026-05-07 01:31 | 25.76003 | -146.72556 | 40025 ft | 472 kts | 244° |
| 2026-05-07 01:31 | 25.73146 | -146.79065 | 40024 ft | 472 kts | 244° |
| 2026-05-07 01:32 | 25.70267 | -146.85613 | 40025 ft | 471 kts | 244° |
| 2026-05-07 01:32 | 25.67391 | -146.92147 | 40023 ft | 471 kts | 244° |
| 2026-05-07 01:33 | 25.64512 | -146.98687 | 40026 ft | 472 kts | 245° |
| 2026-05-07 01:33 | 25.61645 | -147.05236 | 40010 ft | 472 kts | 245° |
| 2026-05-07 01:34 | 25.58765 | -147.11780 | 40014 ft | 472 kts | 244° |
| 2026-05-07 01:34 | 25.55890 | -147.18278 | 40010 ft | 472 kts | 244° |
| 2026-05-07 01:35 | 25.52995 | -147.24804 | 40013 ft | 472 kts | 244° |
| 2026-05-07 01:35 | 25.50098 | -147.31324 | 40011 ft | 472 kts | 244° |
| 2026-05-07 01:36 | 25.47199 | -147.37843 | 40008 ft | 472 kts | 244° |
| 2026-05-07 01:36 | 25.44292 | -147.44369 | 40018 ft | 472 kts | 244° |
| 2026-05-07 01:37 | 25.41398 | -147.50854 | 40011 ft | 472 kts | 244° |
| 2026-05-07 01:37 | 25.38482 | -147.57381 | 40014 ft | 472 kts | 244° |
| 2026-05-07 01:38 | 25.35565 | -147.63900 | 40009 ft | 472 kts | 244° |
| 2026-05-07 01:38 | 25.32642 | -147.70423 | 39996 ft | 472 kts | 244° |
| 2026-05-07 01:39 | 25.29741 | -147.76887 | 40010 ft | 473 kts | 244° |
| 2026-05-07 01:39 | 25.26815 | -147.83399 | 40008 ft | 473 kts | 244° |
| 2026-05-07 01:40 | 25.23885 | -147.89908 | 40001 ft | 473 kts | 244° |
| 2026-05-07 01:40 | 25.20950 | -147.96421 | 40006 ft | 473 kts | 244° |
| 2026-05-07 01:41 | 25.18017 | -148.02918 | 40002 ft | 472 kts | 244° |
| 2026-05-07 01:41 | 25.15081 | -148.09412 | 39998 ft | 472 kts | 244° |
| 2026-05-07 01:42 | 25.12144 | -148.15901 | 39998 ft | 472 kts | 244° |
| 2026-05-07 01:42 | 25.09207 | -148.22379 | 40000 ft | 472 kts | 244° |
| 2026-05-07 01:43 | 25.06283 | -148.28821 | 40002 ft | 472 kts | 244° |
| 2026-05-07 01:43 | 25.03336 | -148.35302 | 39998 ft | 472 kts | 244° |
| 2026-05-07 01:44 | 25.00403 | -148.41745 | 39995 ft | 472 kts | 243° |
| 2026-05-07 01:44 | 24.97452 | -148.48217 | 39991 ft | 472 kts | 243° |
| 2026-05-07 01:45 | 24.94502 | -148.54677 | 39993 ft | 471 kts | 243° |
| 2026-05-07 01:45 | 24.91552 | -148.61128 | 39994 ft | 471 kts | 243° |
| 2026-05-07 01:46 | 24.88599 | -148.67579 | 39994 ft | 471 kts | 243° |
| 2026-05-07 01:46 | 24.85640 | -148.74031 | 39997 ft | 471 kts | 243° |
| 2026-05-07 01:47 | 24.82682 | -148.80474 | 39996 ft | 471 kts | 243° |
| 2026-05-07 01:47 | 24.79736 | -148.86880 | 39994 ft | 471 kts | 243° |
| 2026-05-07 01:48 | 24.76771 | -148.93319 | 39992 ft | 471 kts | 243° |
| 2026-05-07 01:48 | 24.73804 | -148.99753 | 39992 ft | 471 kts | 243° |
| 2026-05-07 01:49 | 24.70830 | -149.06193 | 39997 ft | 471 kts | 243° |
| 2026-05-07 01:49 | 24.67855 | -149.12627 | 39993 ft | 471 kts | 243° |
| 2026-05-07 01:50 | 24.64897 | -149.19014 | 39988 ft | 471 kts | 243° |
| 2026-05-07 01:50 | 24.61916 | -149.25443 | 39981 ft | 471 kts | 243° |
| 2026-05-07 01:51 | 24.58944 | -149.31840 | 39992 ft | 469 kts | 243° |
| 2026-05-07 01:51 | 24.55991 | -149.38192 | 39985 ft | 469 kts | 243° |
| 2026-05-07 01:52 | 24.53020 | -149.44574 | 39986 ft | 469 kts | 243° |
| 2026-05-07 01:52 | 24.49999 | -149.50933 | 39985 ft | 469 kts | 241° |
| 2026-05-07 01:53 | 24.47438 | -149.56180 | 39987 ft | 469 kts | 240° |
| 2026-05-07 01:53 | 24.44381 | -149.62517 | 39987 ft | 470 kts | 241° |
| 2026-05-07 01:54 | 24.41369 | -149.68889 | 39986 ft | 469 kts | 242° |
| 2026-05-07 01:54 | 24.38101 | -149.75016 | 39975 ft | 462 kts | 232° |
| 2026-05-07 01:55 | 24.34924 | -149.81063 | 39990 ft | 458 kts | 238° |
| 2026-05-07 01:55 | 24.32013 | -149.87281 | 39988 ft | 457 kts | 238° |
| 2026-05-07 01:56 | 24.29156 | -149.93528 | 39989 ft | 458 kts | 239° |
| 2026-05-07 01:56 | 24.26278 | -149.99776 | 39983 ft | 459 kts | 238° |
| 2026-05-07 01:57 | 24.23364 | -150.05962 | 39982 ft | 458 kts | 238° |
| 2026-05-07 01:57 | 24.20427 | -150.12152 | 39985 ft | 458 kts | 238° |
| 2026-05-07 01:58 | 24.17407 | -150.18274 | 39977 ft | 455 kts | 235° |
| 2026-05-07 01:58 | 24.14400 | -150.24336 | 40034 ft | 450 kts | 234° |
| 2026-05-07 01:59 | 24.11490 | -150.30370 | 39986 ft | 446 kts | 241° |
| 2026-05-07 01:59 | 24.08847 | -150.36527 | 39985 ft | 450 kts | 242° |
| 2026-05-07 02:00 | 24.06206 | -150.42791 | 39985 ft | 457 kts | 243° |
| 2026-05-07 02:00 | 24.03320 | -150.49034 | 39973 ft | 459 kts | 237° |
| 2026-05-07 02:01 | 24.00145 | -150.55035 | 39970 ft | 456 kts | 233° |
| 2026-05-07 02:01 | 23.96973 | -150.61000 | 39978 ft | 452 kts | 234° |
| 2026-05-07 02:02 | 23.93989 | -150.67017 | 40011 ft | 446 kts | 244° |
| 2026-05-07 02:02 | 23.92717 | -150.70106 | 40159 ft | 444 kts | 244° |
| 2026-05-07 02:02 | 23.91444 | -150.73200 | 40042 ft | 450 kts | 241° |
| 2026-05-07 02:03 | 23.88584 | -150.79314 | 39978 ft | 453 kts | 240° |
| 2026-05-07 02:03 | 23.85722 | -150.85500 | 39975 ft | 457 kts | 238° |
| 2026-05-07 02:04 | 23.82723 | -150.91597 | 39977 ft | 458 kts | 238° |
| 2026-05-07 02:04 | 23.79741 | -150.97753 | 39980 ft | 460 kts | 240° |
| 2026-05-07 02:05 | 23.76836 | -151.03999 | 39980 ft | 462 kts | 240° |
| 2026-05-07 02:05 | 23.73877 | -151.10246 | 39979 ft | 463 kts | 240° |
| 2026-05-07 02:06 | 23.70874 | -151.16480 | 39978 ft | 464 kts | 239° |
| 2026-05-07 02:06 | 23.67837 | -151.22697 | 39978 ft | 464 kts | 239° |
| 2026-05-07 02:07 | 23.64822 | -151.28877 | 39982 ft | 464 kts | 239° |
| 2026-05-07 02:07 | 23.60293 | -151.38204 | 39980 ft | 464 kts | 239° |
| 2026-05-07 02:08 | 23.57270 | -151.44430 | 39975 ft | 464 kts | 239° |
| 2026-05-07 02:08 | 23.54248 | -151.50646 | 39974 ft | 464 kts | 239° |
| 2026-05-07 02:09 | 23.51222 | -151.56876 | 39976 ft | 464 kts | 240° |
| 2026-05-07 02:09 | 23.48234 | -151.63058 | 39976 ft | 465 kts | 239° |
| 2026-05-07 02:10 | 23.45211 | -151.69276 | 39974 ft | 464 kts | 239° |
| 2026-05-07 02:10 | 23.42172 | -151.75497 | 39974 ft | 464 kts | 239° |
| 2026-05-07 02:11 | 23.39138 | -151.81699 | 39976 ft | 465 kts | 240° |
| 2026-05-07 02:11 | 23.36124 | -151.87902 | 39977 ft | 465 kts | 240° |
| 2026-05-07 02:12 | 23.33072 | -151.94157 | 39978 ft | 465 kts | 239° |
| 2026-05-07 02:12 | 23.30036 | -152.00344 | 39977 ft | 466 kts | 239° |
| 2026-05-07 02:13 | 23.26979 | -152.06555 | 39977 ft | 466 kts | 239° |
| 2026-05-07 02:13 | 23.23915 | -152.12773 | 39977 ft | 465 kts | 239° |
| 2026-05-07 02:14 | 23.20858 | -152.18971 | 39978 ft | 465 kts | 239° |
| 2026-05-07 02:14 | 23.17785 | -152.25192 | 39973 ft | 466 kts | 239° |
| 2026-05-07 02:15 | 23.14718 | -152.31400 | 39973 ft | 466 kts | 239° |
| 2026-05-07 02:15 | 23.11661 | -152.37576 | 39975 ft | 467 kts | 239° |
| 2026-05-07 02:16 | 23.08580 | -152.43790 | 39977 ft | 467 kts | 239° |
| 2026-05-07 02:16 | 23.05496 | -152.50005 | 39962 ft | 466 kts | 239° |
| 2026-05-07 02:17 | 23.02435 | -152.56167 | 39971 ft | 467 kts | 239° |
| 2026-05-07 02:17 | 22.99340 | -152.62372 | 39977 ft | 467 kts | 239° |
| 2026-05-07 02:18 | 22.96225 | -152.68573 | 39976 ft | 467 kts | 239° |
| 2026-05-07 02:18 | 22.93112 | -152.74762 | 39972 ft | 467 kts | 239° |
| 2026-05-07 02:19 | 22.90017 | -152.80916 | 39975 ft | 467 kts | 239° |
| 2026-05-07 02:19 | 22.86899 | -152.87112 | 39975 ft | 468 kts | 239° |
| 2026-05-07 02:20 | 22.83770 | -152.93320 | 39970 ft | 469 kts | 239° |
| 2026-05-07 02:20 | 22.80653 | -152.99528 | 39964 ft | 468 kts | 240° |
| 2026-05-07 02:21 | 22.77695 | -153.05772 | 39971 ft | 468 kts | 240° |
| 2026-05-07 02:21 | 22.74630 | -153.12004 | 39971 ft | 469 kts | 239° |
| 2026-05-07 02:22 | 22.71476 | -153.18200 | 39965 ft | 468 kts | 236° |
| 2026-05-07 02:22 | 22.68286 | -153.24334 | 39970 ft | 466 kts | 237° |
| 2026-05-07 02:23 | 22.65142 | -153.30478 | 39972 ft | 466 kts | 237° |
| 2026-05-07 02:23 | 22.62013 | -153.36622 | 39970 ft | 465 kts | 237° |
| 2026-05-07 02:24 | 22.58912 | -153.42713 | 39970 ft | 465 kts | 237° |
| 2026-05-07 02:24 | 22.55784 | -153.48853 | 39969 ft | 465 kts | 237° |
| 2026-05-07 02:25 | 22.52657 | -153.54984 | 39970 ft | 466 kts | 237° |
| 2026-05-07 02:25 | 22.49523 | -153.61119 | 39969 ft | 466 kts | 237° |
| 2026-05-07 02:26 | 22.46386 | -153.67254 | 39969 ft | 466 kts | 237° |
| 2026-05-07 02:26 | 22.43247 | -153.73386 | 39969 ft | 466 kts | 237° |
| 2026-05-07 02:27 | 22.40124 | -153.79479 | 39967 ft | 466 kts | 237° |
| 2026-05-07 02:27 | 22.37070 | -153.85651 | 39939 ft | 464 kts | 243° |
| 2026-05-07 02:28 | 22.36029 | -153.88949 | 39811 ft | 465 kts | 251° |
| 2026-05-07 02:28 | 22.35495 | -153.92387 | 39556 ft | 464 kts | 261° |
| 2026-05-07 02:28 | 22.35475 | -153.95884 | 39329 ft | 468 kts | 265° |
| 2026-05-07 02:28 | 22.35665 | -153.99397 | 39190 ft | 468 kts | 265° |
| 2026-05-07 02:29 | 22.35831 | -154.02922 | 38984 ft | 470 kts | 269° |
| 2026-05-07 02:29 | 22.36063 | -154.06440 | 38954 ft | 471 kts | 270° |
| 2026-05-07 02:29 | 22.36408 | -154.13498 | 38822 ft | 473 kts | 268° |
| 2026-05-07 02:30 | 22.36521 | -154.17059 | 38716 ft | 473 kts | 268° |
| 2026-05-07 02:30 | 22.36615 | -154.20623 | 38577 ft | 474 kts | 267° |
| 2026-05-07 02:30 | 22.36680 | -154.24183 | 38338 ft | 473 kts | 263° |
| 2026-05-07 02:30 | 22.36648 | -154.27746 | 38043 ft | 475 kts | 262° |
| 2026-05-07 02:31 | 22.36627 | -154.31320 | 37772 ft | 477 kts | 263° |
| 2026-05-07 02:31 | 22.36629 | -154.34915 | 37506 ft | 478 kts | 262° |
| 2026-05-07 02:31 | 22.36640 | -154.38516 | 37241 ft | 480 kts | 263° |
| 2026-05-07 02:31 | 22.36674 | -154.42131 | 36987 ft | 481 kts | 263° |
| 2026-05-07 02:32 | 22.36725 | -154.45757 | 36738 ft | 483 kts | 264° |
| 2026-05-07 02:32 | 22.36787 | -154.49386 | 36481 ft | 485 kts | 264° |
| 2026-05-07 02:32 | 22.36857 | -154.53036 | 36242 ft | 486 kts | 264° |
| 2026-05-07 02:32 | 22.36933 | -154.56696 | 36000 ft | 488 kts | 265° |
| 2026-05-07 02:33 | 22.37014 | -154.60369 | 35778 ft | 490 kts | 265° |
| 2026-05-07 02:33 | 22.37097 | -154.64009 | 35590 ft | 491 kts | 265° |
| 2026-05-07 02:33 | 22.37178 | -154.67700 | 35394 ft | 492 kts | 266° |
| 2026-05-07 02:33 | 22.37258 | -154.71383 | 35222 ft | 492 kts | 266° |
| 2026-05-07 02:34 | 22.37337 | -154.75095 | 35053 ft | 493 kts | 266° |
| 2026-05-07 02:34 | 22.37413 | -154.78798 | 34896 ft | 494 kts | 266° |
| 2026-05-07 02:34 | 22.37486 | -154.82511 | 34696 ft | 494 kts | 266° |
| 2026-05-07 02:34 | 22.37559 | -154.86230 | 34456 ft | 495 kts | 266° |
| 2026-05-07 02:35 | 22.37634 | -154.89952 | 34234 ft | 496 kts | 266° |
| 2026-05-07 02:35 | 22.37710 | -154.93693 | 33994 ft | 498 kts | 267° |
| 2026-05-07 02:35 | 22.37785 | -154.97387 | 33743 ft | 499 kts | 267° |
| 2026-05-07 02:35 | 22.37861 | -155.01141 | 33479 ft | 500 kts | 267° |
| 2026-05-07 02:36 | 22.37937 | -155.04903 | 33224 ft | 502 kts | 268° |
| 2026-05-07 02:36 | 22.38014 | -155.08681 | 32970 ft | 503 kts | 268° |
| 2026-05-07 02:36 | 22.38091 | -155.12470 | 32720 ft | 504 kts | 268° |
| 2026-05-07 02:36 | 22.38166 | -155.16250 | 32471 ft | 505 kts | 268° |
| 2026-05-07 02:37 | 22.38241 | -155.20053 | 32232 ft | 506 kts | 268° |
| 2026-05-07 02:37 | 22.38313 | -155.23852 | 31985 ft | 507 kts | 268° |
| 2026-05-07 02:37 | 22.38379 | -155.27618 | 31743 ft | 508 kts | 268° |
| 2026-05-07 02:37 | 22.38442 | -155.31438 | 31498 ft | 510 kts | 268° |
| 2026-05-07 02:38 | 22.38502 | -155.35287 | 31254 ft | 511 kts | 268° |
| 2026-05-07 02:38 | 22.38561 | -155.39141 | 31019 ft | 513 kts | 268° |
| 2026-05-07 02:38 | 22.38619 | -155.42996 | 30781 ft | 514 kts | 268° |
| 2026-05-07 02:38 | 22.38676 | -155.46860 | 30550 ft | 515 kts | 268° |
| 2026-05-07 02:39 | 22.38732 | -155.50735 | 30320 ft | 517 kts | 268° |
| 2026-05-07 02:39 | 22.38787 | -155.54618 | 30078 ft | 517 kts | 268° |
| 2026-05-07 02:39 | 22.38841 | -155.58506 | 29816 ft | 516 kts | 268° |
| 2026-05-07 02:39 | 22.38892 | -155.62332 | 29563 ft | 515 kts | 268° |
| 2026-05-07 02:40 | 22.38941 | -155.66192 | 29294 ft | 513 kts | 268° |
| 2026-05-07 02:40 | 22.38987 | -155.70037 | 29032 ft | 511 kts | 268° |
| 2026-05-07 02:40 | 22.39031 | -155.73864 | 28774 ft | 509 kts | 268° |
| 2026-05-07 02:40 | 22.39074 | -155.77694 | 28637 ft | 508 kts | 268° |
| 2026-05-07 02:41 | 22.39151 | -155.85324 | 28509 ft | 506 kts | 268° |
| 2026-05-07 02:41 | 22.39211 | -155.91647 | 28423 ft | 505 kts | 268° |
| 2026-05-07 02:42 | 22.39281 | -155.99228 | 28332 ft | 504 kts | 268° |
| 2026-05-07 02:42 | 22.39347 | -156.06812 | 28228 ft | 504 kts | 268° |
| 2026-05-07 02:43 | 22.39411 | -156.14338 | 28131 ft | 503 kts | 268° |
| 2026-05-07 02:43 | 22.38871 | -156.21831 | 27884 ft | 498 kts | 254° |
| 2026-05-07 02:44 | 22.37742 | -156.25365 | 27633 ft | 498 kts | 243° |
| 2026-05-07 02:44 | 22.36014 | -156.28602 | 27377 ft | 497 kts | 232° |
| 2026-05-07 02:44 | 22.33877 | -156.31543 | 27111 ft | 498 kts | 228° |
| 2026-05-07 02:44 | 22.31648 | -156.34413 | 26935 ft | 498 kts | 228° |
| 2026-05-07 02:45 | 22.29423 | -156.37276 | 26826 ft | 490 kts | 228° |
| 2026-05-07 02:45 | 22.27264 | -156.40045 | 26453 ft | 473 kts | 227° |
| 2026-05-07 02:45 | 22.25192 | -156.42686 | 26087 ft | 458 kts | 226° |
| 2026-05-07 02:45 | 22.23145 | -156.45252 | 25698 ft | 442 kts | 224° |
| 2026-05-07 02:46 | 22.21152 | -156.47713 | 25299 ft | 428 kts | 223° |
| 2026-05-07 02:46 | 22.19203 | -156.50092 | 24722 ft | 418 kts | 222° |
| 2026-05-07 02:46 | 22.17327 | -156.52403 | 24078 ft | 410 kts | 222° |
| 2026-05-07 02:46 | 22.15470 | -156.54724 | 23439 ft | 406 kts | 222° |
| 2026-05-07 02:47 | 22.13642 | -156.57048 | 23062 ft | 406 kts | 223° |
| 2026-05-07 02:47 | 22.11820 | -156.59386 | 22980 ft | 406 kts | 223° |
| 2026-05-07 02:47 | 22.10014 | -156.61711 | 22974 ft | 403 kts | 223° |
| 2026-05-07 02:47 | 22.08209 | -156.64027 | 22972 ft | 403 kts | 223° |
| 2026-05-07 02:48 | 22.06409 | -156.66343 | 22976 ft | 402 kts | 223° |
| 2026-05-07 02:48 | 22.04610 | -156.68656 | 22974 ft | 403 kts | 223° |
| 2026-05-07 02:48 | 22.02810 | -156.70980 | 22979 ft | 402 kts | 223° |
| 2026-05-07 02:48 | 22.01037 | -156.73268 | 22966 ft | 403 kts | 223° |
| 2026-05-07 02:49 | 21.99241 | -156.75588 | 22967 ft | 403 kts | 223° |
| 2026-05-07 02:49 | 21.97439 | -156.77911 | 22975 ft | 404 kts | 223° |
| 2026-05-07 02:49 | 21.95644 | -156.80234 | 22973 ft | 403 kts | 223° |
| 2026-05-07 02:49 | 21.93843 | -156.82558 | 22975 ft | 403 kts | 223° |
| 2026-05-07 02:50 | 21.92044 | -156.84883 | 22973 ft | 403 kts | 223° |
| 2026-05-07 02:50 | 21.90246 | -156.87200 | 22973 ft | 404 kts | 223° |
| 2026-05-07 02:50 | 21.88448 | -156.89521 | 22978 ft | 403 kts | 223° |
| 2026-05-07 02:50 | 21.86650 | -156.91839 | 22977 ft | 404 kts | 223° |
| 2026-05-07 02:51 | 21.84852 | -156.94158 | 22976 ft | 403 kts | 223° |
| 2026-05-07 02:51 | 21.83051 | -156.96477 | 22979 ft | 403 kts | 223° |
| 2026-05-07 02:51 | 21.81275 | -156.98768 | 22971 ft | 403 kts | 223° |
| 2026-05-07 02:51 | 21.79471 | -157.01090 | 22977 ft | 404 kts | 223° |
| 2026-05-07 02:52 | 21.77672 | -157.03413 | 22971 ft | 403 kts | 223° |
| 2026-05-07 02:52 | 21.75876 | -157.05725 | 22971 ft | 403 kts | 223° |
| 2026-05-07 02:52 | 21.74079 | -157.08038 | 22966 ft | 404 kts | 222° |
| 2026-05-07 02:52 | 21.72264 | -157.10364 | 22973 ft | 405 kts | 222° |
| 2026-05-07 02:53 | 21.70454 | -157.12693 | 22976 ft | 405 kts | 222° |
| 2026-05-07 02:53 | 21.68667 | -157.14994 | 22976 ft | 406 kts | 222° |
| 2026-05-07 02:53 | 21.66856 | -157.17327 | 22961 ft | 406 kts | 222° |
| 2026-05-07 02:53 | 21.65047 | -157.19652 | 22964 ft | 406 kts | 222° |
| 2026-05-07 02:54 | 21.63235 | -157.21985 | 22966 ft | 405 kts | 222° |
| 2026-05-07 02:54 | 21.61425 | -157.24308 | 22960 ft | 406 kts | 222° |
| 2026-05-07 02:54 | 21.59615 | -157.26634 | 22959 ft | 405 kts | 222° |
| 2026-05-07 02:54 | 21.57802 | -157.28957 | 22964 ft | 405 kts | 222° |
| 2026-05-07 02:55 | 21.55997 | -157.31267 | 22798 ft | 396 kts | 221° |
| 2026-05-07 02:55 | 21.54244 | -157.33478 | 21970 ft | 386 kts | 220° |
| 2026-05-07 02:55 | 21.52488 | -157.35691 | 20765 ft | 393 kts | 223° |
| 2026-05-07 02:55 | 21.50771 | -157.37923 | 19396 ft | 380 kts | 224° |
| 2026-05-07 02:56 | 21.49122 | -157.40082 | 17608 ft | 378 kts | 226° |
| 2026-05-07 02:56 | 21.47486 | -157.42275 | 15880 ft | 374 kts | 227° |
| 2026-05-07 02:56 | 21.45916 | -157.44400 | 15057 ft | 347 kts | 224° |
| 2026-05-07 02:56 | 21.44452 | -157.46269 | 14764 ft | 313 kts | 219° |
| 2026-05-07 02:57 | 21.42966 | -157.48041 | 14379 ft | 324 kts | 219° |
| 2026-05-07 02:57 | 21.41463 | -157.49866 | 13928 ft | 326 kts | 221° |
| 2026-05-07 02:57 | 21.39990 | -157.51716 | 13417 ft | 324 kts | 221° |
| 2026-05-07 02:57 | 21.38537 | -157.53558 | 12938 ft | 321 kts | 221° |
| 2026-05-07 02:58 | 21.37116 | -157.55364 | 12485 ft | 320 kts | 221° |
| 2026-05-07 02:58 | 21.35686 | -157.57183 | 12025 ft | 318 kts | 221° |
| 2026-05-07 02:58 | 21.34264 | -157.58992 | 11582 ft | 316 kts | 221° |
| 2026-05-07 02:58 | 21.32852 | -157.60789 | 11112 ft | 314 kts | 221° |
| 2026-05-07 02:59 | 21.31453 | -157.62575 | 10697 ft | 308 kts | 222° |
| 2026-05-07 02:59 | 21.30173 | -157.64236 | 10547 ft | 268 kts | 218° |
| 2026-05-07 02:59 | 21.28996 | -157.65707 | 10405 ft | 264 kts | 216° |
| 2026-05-07 02:59 | 21.27748 | -157.67195 | 10305 ft | 272 kts | 216° |
| 2026-05-07 03:00 | 21.26520 | -157.68759 | 10072 ft | 277 kts | 224° |
| 2026-05-07 03:00 | 21.25645 | -157.70501 | 9777 ft | 259 kts | 237° |
| 2026-05-07 03:00 | 21.25191 | -157.72442 | 9644 ft | 275 kts | 250° |
| 2026-05-07 03:00 | 21.25002 | -157.74479 | 9503 ft | 264 kts | 252° |
| 2026-05-07 03:01 | 21.24895 | -157.76351 | 8938 ft | 251 kts | 253° |
| 2026-05-07 03:01 | 21.24754 | -157.78298 | 8810 ft | 270 kts | 251° |
| 2026-05-07 03:01 | 21.24581 | -157.80248 | 8387 ft | 251 kts | 251° |
| 2026-05-07 03:01 | 21.24427 | -157.82161 | 8117 ft | 267 kts | 251° |
| 2026-05-07 03:02 | 21.24238 | -157.84120 | 7797 ft | 252 kts | 251° |
| 2026-05-07 03:02 | 21.24088 | -157.85980 | 7415 ft | 255 kts | 251° |
| 2026-05-07 03:02 | 21.23933 | -157.87796 | 7232 ft | 242 kts | 251° |
| 2026-05-07 03:02 | 21.23789 | -157.89583 | 7124 ft | 239 kts | 251° |
| 2026-05-07 03:03 | 21.23640 | -157.91360 | 6990 ft | 238 kts | 251° |
| 2026-05-07 03:03 | 21.23485 | -157.93126 | 6864 ft | 237 kts | 250° |
| 2026-05-07 03:03 | 21.23325 | -157.94884 | 6607 ft | 236 kts | 250° |
| 2026-05-07 03:03 | 21.23235 | -157.96635 | 6453 ft | 233 kts | 268° |
| 2026-05-07 03:04 | 21.23292 | -157.98356 | 6319 ft | 227 kts | 265° |
| 2026-05-07 03:04 | 21.23355 | -157.99995 | 5922 ft | 223 kts | 269° |
| 2026-05-07 03:04 | 21.23427 | -158.01683 | 5790 ft | 228 kts | 264° |
| 2026-05-07 03:04 | 21.23411 | -158.03365 | 5664 ft | 224 kts | 260° |
| 2026-05-07 03:05 | 21.23361 | -158.05029 | 5453 ft | 223 kts | 260° |
| 2026-05-07 03:05 | 21.23319 | -158.06692 | 5270 ft | 224 kts | 261° |
| 2026-05-07 03:05 | 21.23292 | -158.08361 | 5110 ft | 224 kts | 261° |
| 2026-05-07 03:05 | 21.23276 | -158.10028 | 4992 ft | 223 kts | 262° |
| 2026-05-07 03:06 | 21.23266 | -158.11689 | 4944 ft | 222 kts | 262° |
| 2026-05-07 03:06 | 21.23262 | -158.13341 | 4788 ft | 219 kts | 263° |
| 2026-05-07 03:06 | 21.23555 | -158.14952 | 4518 ft | 227 kts | 285° |
| 2026-05-07 03:06 | 21.24461 | -158.16318 | 4429 ft | 225 kts | 309° |
| 2026-05-07 03:07 | 21.25807 | -158.17170 | 4152 ft | 228 kts | 331° |
| 2026-05-07 03:07 | 21.27367 | -158.17420 | 4075 ft | 224 kts | 346° |
| 2026-05-07 03:07 | 21.28829 | -158.17479 | 3731 ft | 202 kts | 348° |
| 2026-05-07 03:07 | 21.30266 | -158.17398 | 3256 ft | 216 kts | 358° |
| 2026-05-07 03:08 | 21.31692 | -158.16862 | 2797 ft | 213 kts | 21° |
| 2026-05-07 03:08 | 21.32753 | -158.15800 | 2289 ft | 204 kts | 40° |
| 2026-05-07 03:08 | 21.33590 | -158.14656 | 1976 ft | 184 kts | 54° |
| 2026-05-07 03:08 | 21.33805 | -158.13321 | 1998 ft | 196 kts | 92° |
| 2026-05-07 03:09 | 21.33486 | -158.11858 | 1973 ft | 199 kts | 101° |
| 2026-05-07 03:09 | 21.33099 | -158.10546 | 1938 ft | 171 kts | 100° |
| 2026-05-07 03:09 | 21.32816 | -158.09387 | 1812 ft | 153 kts | 94° |
| 2026-05-07 03:09 | 21.32721 | -158.08260 | 1686 ft | 152 kts | 79° |
| 2026-05-07 03:10 | 21.32752 | -158.07132 | 1567 ft | 154 kts | 78° |
| 2026-05-07 03:10 | 21.32787 | -158.05977 | 1437 ft | 155 kts | 78° |
| 2026-05-07 03:10 | 21.32825 | -158.04826 | 1317 ft | 155 kts | 73° |
| 2026-05-07 03:10 | 21.32868 | -158.03669 | 1205 ft | 155 kts | 78° |
| 2026-05-07 03:11 | 21.32720 | -158.02479 | 977 ft | 167 kts | 96° |
| 2026-05-07 03:11 | 21.32593 | -158.01294 | 875 ft | 156 kts | 89° |
| 2026-05-07 03:11 | 21.32512 | -158.00174 | 787 ft | 147 kts | 83° |
| 2026-05-07 03:11 | 21.32547 | -157.99067 | 707 ft | 150 kts | 82° |
| 2026-05-07 03:12 | 21.32558 | -157.97956 | 539 ft | 146 kts | 83° |
| 2026-05-07 03:12 | 21.32548 | -157.96836 | 402 ft | 150 kts | 79° |
| 2026-05-07 03:12 | 21.32555 | -157.95729 | 272 ft | 151 kts | 83° |
| 2026-05-07 03:12 | 21.32540 | -157.94592 | 109 ft | 149 kts | 79° |
| 2026-05-07 03:13 | 21.32534 | -157.93537 | 29 ft | 132 kts | 78° |
| 2026-05-07 03:13 | 21.32527 | -157.92696 | 21 ft | 94 kts | 92° |
| 2026-05-07 03:13 | 21.32522 | -157.92101 | 21 ft | 68 kts | 87° |
| 2026-05-07 03:13 | 21.32526 | -157.91634 | 14 ft | 56 kts | 87° |
| 2026-05-07 03:14 | 21.32532 | -157.91390 | 16 ft | 21 kts | 69° |
| 2026-05-07 03:14 | 21.32615 | -157.91326 | 16 ft | 15 kts | 17° |
| 2026-05-07 03:14 | 21.32663 | -157.91316 | 19 ft | 0 kts | 8° |
| 2026-05-07 03:15 | 21.32729 | -157.91311 | 17 ft | 16 kts | 347° |
| 2026-05-07 03:16 | 21.32765 | -157.91353 | 20 ft | 4 kts | 288° |
| 2026-05-07 03:16 | 21.32768 | -157.91364 | 18 ft | 0 kts | 288° |
| 2026-05-07 03:18 | 21.32775 | -157.91387 | 20 ft | 16 kts | 288° |
| 2026-05-07 03:18 | 21.32798 | -157.91484 | 8 ft | 7 kts | 245° |
| 2026-05-07 03:18 | 21.32777 | -157.91542 | 10 ft | 16 kts | 265° |
| 2026-05-07 03:19 | 21.32774 | -157.91657 | 10 ft | 12 kts | 269° |
| 2026-05-07 03:19 | 21.32774 | -157.91744 | 10 ft | 16 kts | 270° |
| 2026-05-07 03:19 | 21.32774 | -157.91832 | 8 ft | 13 kts | 270° |
| 2026-05-07 03:19 | 21.32794 | -157.91904 | 8 ft | 12 kts | 322° |
| 2026-05-07 03:20 | 21.32871 | -157.91909 | 10 ft | 16 kts | 9° |
| 2026-05-07 03:20 | 21.32949 | -157.91895 | 12 ft | 7 kts | 8° |
| 2026-05-07 03:20 | 21.32996 | -157.91887 | 12 ft | 7 kts | 9° |
| 2026-05-07 03:20 | 21.33042 | -157.91879 | 13 ft | 7 kts | 9° |
| 2026-05-07 03:21 | 21.33086 | -157.91872 | 14 ft | 7 kts | 6° |
| 2026-05-07 03:21 | 21.33114 | -157.91869 | 14 ft | 0 kts | 6° |
| 2026-05-07 03:21 | 21.33113 | -157.91869 | 14 ft | 0 kts | 6° |